createdAt,value
2023-03-04T00:00:09.697Z,102503.00
2023-03-04T00:02:39.768Z,102497.75
2023-03-04T00:05:07.383Z,102496.81
2023-03-04T00:07:34.357Z,102502.03
2023-03-04T00:10:01.369Z,102498.53
2023-03-04T00:12:28.246Z,102491.56
2023-03-04T00:14:55.355Z,102492.50
2023-03-04T00:17:22.354Z,102490.72
2023-03-04T00:19:49.242Z,102488.94
2023-03-04T00:22:16.377Z,102493.34
2023-03-04T00:24:43.287Z,102491.66
2023-03-04T00:27:10.235Z,102495.13
2023-03-04T00:29:37.120Z,102496.88
2023-03-04T00:32:04.509Z,102495.03
2023-03-04T00:34:32.893Z,102489.81
2023-03-04T00:37:01.532Z,102494.16
2023-03-04T00:39:28.675Z,102484.63
2023-03-04T00:41:56.076Z,102483.72
2023-03-04T00:44:23.026Z,102483.72
2023-03-04T00:46:49.960Z,102485.47
2023-03-04T00:49:16.876Z,102486.34
2023-03-04T00:51:43.857Z,102479.25
2023-03-04T00:54:10.828Z,102487.88
2023-03-04T00:56:37.784Z,102487.84
2023-03-04T00:59:04.972Z,102493.94
2023-03-04T01:01:32.543Z,102491.38
2023-03-04T01:03:59.452Z,102501.78
2023-03-04T01:06:27.151Z,102488.72
2023-03-04T01:08:54.100Z,102493.94
2023-03-04T01:11:21.003Z,102489.53
2023-03-04T01:13:48.585Z,102487.00
2023-03-04T01:16:15.796Z,102498.34
2023-03-04T01:18:42.808Z,102494.00
2023-03-04T01:21:09.778Z,102493.94
2023-03-04T01:23:36.651Z,102490.47
2023-03-04T01:26:03.889Z,102495.72
2023-03-04T01:28:35.880Z,102490.47
2023-03-04T01:31:04.382Z,102485.25
2023-03-04T01:33:31.610Z,102490.47
2023-03-04T01:35:58.658Z,102484.34
2023-03-04T01:38:26.017Z,102487.00
2023-03-04T01:40:54.153Z,102476.50
2023-03-04T01:43:26.228Z,102478.22
2023-03-04T01:45:55.308Z,102470.47
2023-03-04T01:48:31.657Z,102467.72
2023-03-04T01:51:04.573Z,102470.31
2023-03-04T01:53:33.127Z,102469.41
2023-03-04T01:56:38.059Z,102460.69
2023-03-04T01:59:26.984Z,102468.53
2023-03-04T02:01:58.980Z,102457.16
2023-03-04T02:04:33.062Z,102454.56
2023-03-04T02:07:02.614Z,102454.56
2023-03-04T02:09:31.974Z,102449.34
2023-03-04T02:12:01.324Z,102448.53
2023-03-04T02:14:28.638Z,102445.00
2023-03-04T02:16:55.568Z,102440.63
2023-03-04T02:19:40.737Z,102443.22
2023-03-04T02:22:08.113Z,102438.94
2023-03-04T02:25:03.536Z,102435.41
2023-03-04T02:27:30.676Z,102441.59
2023-03-04T02:29:57.668Z,102440.63
2023-03-04T02:32:24.792Z,102439.78
2023-03-04T02:34:52.123Z,102428.44
2023-03-04T02:37:21.863Z,102438.88
2023-03-04T02:39:51.802Z,102424.94
2023-03-04T02:42:18.926Z,102426.66
2023-03-04T02:44:50.400Z,102420.56
2023-03-04T02:47:19.651Z,102433.63
2023-03-04T02:49:48.063Z,102430.13
2023-03-04T02:52:21.997Z,102425.72
2023-03-04T02:54:49.028Z,102422.25
2023-03-04T02:57:17.208Z,102422.25
2023-03-04T02:59:47.885Z,102419.56
2023-03-04T03:02:19.943Z,102416.94
2023-03-04T03:04:46.943Z,102412.59
2023-03-04T03:07:16.502Z,102412.72
2023-03-04T03:09:43.774Z,102410.91
2023-03-04T03:12:10.995Z,102403.88
2023-03-04T03:14:38.179Z,102407.41
2023-03-04T03:17:06.558Z,102405.63
2023-03-04T03:19:33.455Z,102406.50
2023-03-04T03:22:03.296Z,102403.06
2023-03-04T03:24:30.261Z,102398.66
2023-03-04T03:26:57.211Z,102395.09
2023-03-04T03:29:24.651Z,102388.97
2023-03-04T03:31:51.712Z,102400.34
2023-03-04T03:34:20.799Z,102391.59
2023-03-04T03:36:48.738Z,102399.44
2023-03-04T03:39:15.854Z,102400.38
2023-03-04T03:41:42.871Z,102401.25
2023-03-04T03:44:09.827Z,102392.56
2023-03-04T03:46:36.734Z,102394.34
2023-03-04T03:49:03.670Z,102396.94
2023-03-04T03:51:30.577Z,102391.66
2023-03-04T03:53:57.482Z,102391.59
2023-03-04T03:56:24.418Z,102391.56
2023-03-04T03:58:51.425Z,102395.94
2023-03-04T04:01:18.346Z,102394.19
2023-03-04T04:03:45.234Z,102396.81
2023-03-04T04:06:12.200Z,102392.44
2023-03-04T04:08:39.199Z,102395.09
2023-03-04T04:11:06.157Z,102391.63
2023-03-04T04:13:33.135Z,102386.44
2023-03-04T04:16:00.011Z,102402.19
2023-03-04T04:18:27.000Z,102388.19
2023-03-04T04:20:54.252Z,102389.88
2023-03-04T04:23:21.531Z,102380.34
2023-03-04T04:25:48.490Z,102383.81
2023-03-04T04:28:15.425Z,102385.56
2023-03-04T04:30:42.703Z,102396.03
2023-03-04T04:33:10.540Z,102389.06
2023-03-04T04:35:40.838Z,102393.41
2023-03-04T04:38:09.592Z,102389.91
2023-03-04T04:40:37.160Z,102396.03
2023-03-04T04:43:04.319Z,102394.34
2023-03-04T04:45:31.274Z,102391.72
2023-03-04T04:47:58.225Z,102397.81
2023-03-04T04:50:25.701Z,102403.03
2023-03-04T04:52:52.834Z,102394.34
2023-03-04T04:55:19.966Z,102395.19
2023-03-04T04:57:46.887Z,102396.97
2023-03-04T05:00:14.677Z,102404.75
2023-03-04T05:02:41.580Z,102411.88
2023-03-04T05:05:08.991Z,102408.34
2023-03-04T05:07:36.524Z,102404.06
2023-03-04T05:10:04.630Z,102400.50
2023-03-04T05:12:31.548Z,102403.94
2023-03-04T05:14:58.576Z,102402.19
2023-03-04T05:17:25.671Z,102398.75
2023-03-04T05:19:52.550Z,102398.72
2023-03-04T05:22:19.446Z,102399.56
2023-03-04T05:24:46.377Z,102391.72
2023-03-04T05:27:13.311Z,102396.88
2023-03-04T05:29:40.258Z,102397.72
2023-03-04T05:32:07.177Z,102395.13
2023-03-04T05:34:34.090Z,102400.34
2023-03-04T05:37:00.933Z,102401.19
2023-03-04T05:39:32.276Z,102396.81
2023-03-04T05:41:59.181Z,102399.41
2023-03-04T05:44:26.094Z,102397.72
2023-03-04T05:46:52.930Z,102401.19
2023-03-04T05:49:20.166Z,102398.59
2023-03-04T05:51:47.150Z,102408.16
2023-03-04T05:54:14.196Z,102397.66
2023-03-04T05:56:41.244Z,102394.19
2023-03-04T05:59:08.222Z,102402.94
2023-03-04T06:01:35.473Z,102400.34
2023-03-04T06:04:02.541Z,102409.03
2023-03-04T06:06:29.551Z,102404.66
2023-03-04T06:08:56.491Z,102406.38
2023-03-04T06:11:23.489Z,102408.09
2023-03-04T06:13:50.410Z,102413.31
2023-03-04T06:16:17.541Z,102411.56
2023-03-04T06:18:44.593Z,102408.94
2023-03-04T06:21:11.727Z,102410.69
2023-03-04T06:23:38.777Z,102408.09
2023-03-04T06:26:09.288Z,102419.47
2023-03-04T06:28:36.195Z,102422.91
2023-03-04T06:31:03.359Z,102413.34
2023-03-04T06:33:30.787Z,102416.78
2023-03-04T06:35:58.314Z,102415.09
2023-03-04T06:38:26.583Z,102434.25
2023-03-04T06:40:57.122Z,102427.25
2023-03-04T06:43:24.473Z,102429.78
2023-03-04T06:45:51.492Z,102434.13
2023-03-04T06:48:18.424Z,102426.25
2023-03-04T06:50:45.468Z,102429.63
2023-03-04T06:53:12.385Z,102429.59
2023-03-04T06:55:42.642Z,102433.91
2023-03-04T06:58:10.704Z,102433.06
2023-03-04T07:00:39.609Z,102432.19
2023-03-04T07:03:07.276Z,102431.38
2023-03-04T07:05:34.817Z,102421.88
2023-03-04T07:08:02.021Z,102425.44
2023-03-04T07:10:29.007Z,102432.41
2023-03-04T07:12:57.029Z,102421.16
2023-03-04T07:15:23.950Z,102429.03
2023-03-04T07:17:50.951Z,102433.50
2023-03-04T07:20:18.075Z,102434.44
2023-03-04T07:22:45.028Z,102438.03
2023-03-04T07:25:12.349Z,102433.75
2023-03-04T07:27:40.848Z,102439.94
2023-03-04T07:30:09.150Z,102441.72
2023-03-04T07:32:36.149Z,102449.63
2023-03-04T07:35:03.924Z,102447.03
2023-03-04T07:37:31.059Z,102449.72
2023-03-04T07:39:58.080Z,102449.81
2023-03-04T07:42:25.124Z,102449.94
2023-03-04T07:45:01.614Z,102450.91
2023-03-04T07:47:28.728Z,102450.16
2023-03-04T07:49:56.279Z,102448.63
2023-03-04T07:52:23.501Z,102453.91
2023-03-04T07:54:50.667Z,102453.13
2023-03-04T07:57:17.809Z,102460.97
2023-03-04T07:59:44.905Z,102450.56
2023-03-04T08:02:12.067Z,102461.97
2023-03-04T08:04:40.063Z,102466.56
2023-03-04T08:07:08.065Z,102464.03
2023-03-04T08:09:35.244Z,102464.09
2023-03-04T08:12:02.405Z,102464.09
2023-03-04T08:14:29.296Z,102466.72
2023-03-04T08:16:56.292Z,102468.47
2023-03-04T08:19:25.601Z,102469.34
2023-03-04T08:21:53.463Z,102474.66
2023-03-04T08:24:21.376Z,102471.22
2023-03-04T08:26:50.496Z,102470.41
2023-03-04T08:29:22.255Z,102473.91
2023-03-04T08:31:50.848Z,102482.78
2023-03-04T08:34:25.795Z,102465.38
2023-03-04T08:36:53.070Z,102466.38
2023-03-04T08:39:21.086Z,102464.69
2023-03-04T08:41:49.052Z,102474.44
2023-03-04T08:44:16.141Z,102467.56
2023-03-04T08:46:43.840Z,102470.28
2023-03-04T08:49:13.032Z,102474.78
2023-03-04T08:51:40.124Z,102473.91
2023-03-04T08:54:07.059Z,102482.66
2023-03-04T08:56:33.959Z,102472.09
2023-03-04T08:59:00.842Z,102476.53
2023-03-04T09:01:27.936Z,102474.00
2023-03-04T09:03:55.085Z,102474.09
2023-03-04T09:06:22.017Z,102464.56
2023-03-04T09:08:48.966Z,102462.81
2023-03-04T09:11:16.358Z,102464.59
2023-03-04T09:13:43.481Z,102459.31
2023-03-04T09:16:14.987Z,102456.69
2023-03-04T09:18:43.029Z,102461.06
2023-03-04T09:21:11.285Z,102457.63
2023-03-04T09:23:38.886Z,102453.31
2023-03-04T09:26:26.221Z,102448.97
2023-03-04T09:28:57.386Z,102449.06
2023-03-04T09:31:26.746Z,102446.47
2023-03-04T09:33:56.011Z,102446.47
2023-03-04T09:36:23.425Z,102437.63
2023-03-04T09:38:51.115Z,102448.94
2023-03-04T09:41:26.919Z,102442.81
2023-03-04T09:43:55.681Z,102440.28
2023-03-04T09:46:38.620Z,102439.59
2023-03-04T09:49:07.419Z,102435.22
2023-03-04T09:51:59.432Z,102435.25
2023-03-04T09:55:05.966Z,102435.34
2023-03-04T09:57:58.664Z,102432.81
2023-03-04T10:00:44.931Z,102433.69
2023-03-04T10:03:40.406Z,102432.69
2023-03-04T10:06:20.974Z,102437.91
2023-03-04T10:09:02.888Z,102438.69
2023-03-04T10:11:42.811Z,102434.25
2023-03-04T10:14:21.544Z,102429.81
2023-03-04T10:17:12.212Z,102430.69
2023-03-04T10:19:57.453Z,102434.22
2023-03-04T10:22:41.729Z,102426.44
2023-03-04T10:25:20.961Z,102420.38
2023-03-04T10:28:07.130Z,102424.75
2023-03-04T10:30:49.615Z,102442.19
2023-03-04T10:33:26.902Z,102432.47
2023-03-04T10:36:05.496Z,102449.84
2023-03-04T10:38:41.626Z,102438.44
2023-03-04T10:41:20.970Z,102441.97
2023-03-04T10:44:03.187Z,102435.00
2023-03-04T10:46:32.401Z,102436.81
2023-03-04T10:48:59.929Z,102425.53
2023-03-04T10:51:29.681Z,102421.25
2023-03-04T10:54:26.415Z,102413.47
2023-03-04T10:56:59.031Z,102418.84
2023-03-04T10:59:36.631Z,102410.16
2023-03-04T11:02:27.345Z,102409.34
2023-03-04T11:04:57.338Z,102412.81
2023-03-04T11:07:27.301Z,102405.03
2023-03-04T11:09:57.333Z,102412.09
2023-03-04T11:12:34.804Z,102403.34
2023-03-04T11:15:03.958Z,102402.50
2023-03-04T11:17:47.076Z,102397.22
2023-03-04T11:20:34.040Z,102387.59
2023-03-04T11:23:14.616Z,102376.22
2023-03-04T11:25:48.481Z,102379.72
2023-03-04T11:28:37.690Z,102380.56
2023-03-04T11:31:16.294Z,102375.28
2023-03-04T11:34:28.096Z,102378.75
2023-03-04T11:37:16.058Z,102367.34
2023-03-04T11:39:54.763Z,102369.97
2023-03-04T11:42:41.230Z,102379.63
2023-03-04T11:45:29.135Z,102371.78
2023-03-04T11:48:15.036Z,102370.88
2023-03-04T11:50:51.479Z,102365.63
2023-03-04T11:54:10.351Z,102364.66
2023-03-04T11:56:48.765Z,102369.84
2023-03-04T11:59:40.135Z,102357.56
2023-03-04T12:02:33.285Z,102352.31
2023-03-04T12:05:40.306Z,102345.34
2023-03-04T12:08:43.041Z,102343.63
2023-03-04T12:11:40.306Z,102343.66
2023-03-04T12:14:34.854Z,102332.22
2023-03-04T12:17:17.234Z,102345.38
2023-03-04T12:20:02.798Z,102340.06
2023-03-04T12:22:54.834Z,102335.63
2023-03-04T12:25:37.032Z,102329.44
2023-03-04T12:28:52.047Z,102329.34
2023-03-04T12:31:40.875Z,102318.84
2023-03-04T12:34:30.123Z,102308.41
2023-03-04T12:37:47.850Z,102311.97
2023-03-04T12:40:35.215Z,102305.09
2023-03-04T12:43:21.983Z,102290.25
2023-03-04T12:46:06.912Z,102285.00
2023-03-04T12:48:52.795Z,102285.88
2023-03-04T12:51:35.216Z,102280.59
2023-03-04T12:54:31.173Z,102284.13
2023-03-04T12:57:12.724Z,102277.09
2023-03-04T12:59:49.461Z,102285.88
2023-03-04T13:02:54.864Z,102271.88
2023-03-04T13:05:53.725Z,102285.00
2023-03-04T13:08:56.099Z,102286.78
2023-03-04T13:11:25.944Z,102273.59
2023-03-04T13:14:27.487Z,102281.50
2023-03-04T13:17:02.452Z,102265.72
2023-03-04T13:19:56.294Z,102255.22
2023-03-04T13:22:38.619Z,102251.69
2023-03-04T13:25:31.935Z,102263.97
2023-03-04T13:28:13.939Z,102250.81
2023-03-04T13:31:12.171Z,102242.06
2023-03-04T13:33:46.586Z,102239.44
2023-03-04T13:36:28.000Z,102238.53
2023-03-04T13:39:17.130Z,102242.06
2023-03-04T13:41:56.847Z,102238.56
2023-03-04T13:44:45.804Z,102235.00
2023-03-04T13:47:22.958Z,102242.03
2023-03-04T13:49:51.267Z,102242.88
2023-03-04T13:52:45.372Z,102237.63
2023-03-04T13:55:34.731Z,102236.75
2023-03-04T13:58:18.749Z,102231.50
2023-03-04T14:00:54.140Z,102234.09
2023-03-04T14:03:28.243Z,102239.31
2023-03-04T14:06:24.606Z,102232.34
2023-03-04T14:08:55.277Z,102229.69
2023-03-04T14:11:43.168Z,102238.47
2023-03-04T14:14:18.527Z,102225.38
2023-03-04T14:16:53.197Z,102222.78
2023-03-04T14:19:28.543Z,102223.66
2023-03-04T14:21:57.476Z,102216.66
2023-03-04T14:24:25.073Z,102216.66
2023-03-04T14:27:12.187Z,102213.13
2023-03-04T14:29:39.422Z,102214.00
2023-03-04T14:32:07.822Z,102217.47
2023-03-04T14:34:39.646Z,102206.97
2023-03-04T14:37:27.381Z,102207.88
2023-03-04T14:39:58.813Z,102203.47
2023-03-04T14:42:42.736Z,102204.38
2023-03-04T14:45:17.008Z,102210.50
2023-03-04T14:47:48.459Z,102211.38
2023-03-04T14:50:20.812Z,102208.75
2023-03-04T14:52:52.056Z,102204.38
2023-03-04T14:55:27.179Z,102198.25
2023-03-04T14:58:06.502Z,102200.00
2023-03-04T15:00:37.668Z,102201.75
2023-03-04T15:03:25.131Z,102197.38
2023-03-04T15:05:55.147Z,102201.75
2023-03-04T15:08:27.378Z,102199.97
2023-03-04T15:11:04.443Z,102199.09
2023-03-04T15:13:46.648Z,102208.69
2023-03-04T15:16:16.902Z,102197.31
2023-03-04T15:19:06.002Z,102208.72
2023-03-04T15:21:36.909Z,102198.19
2023-03-04T15:24:07.255Z,102198.13
2023-03-04T15:26:41.498Z,102208.63
2023-03-04T15:29:20.859Z,102198.13
2023-03-04T15:31:48.978Z,102198.97
2023-03-04T15:34:20.985Z,102197.19
2023-03-04T15:36:51.562Z,102199.81
2023-03-04T15:39:21.682Z,102206.78
2023-03-04T15:41:50.515Z,102196.28
2023-03-04T15:44:17.637Z,102203.28
2023-03-04T15:46:44.952Z,102196.28
2023-03-04T15:49:11.987Z,102194.50
2023-03-04T15:51:39.911Z,102191.91
2023-03-04T15:54:14.000Z,102191.91
2023-03-04T15:56:41.172Z,102202.38
2023-03-04T15:59:15.842Z,102190.13
2023-03-04T16:01:43.707Z,102185.72
2023-03-04T16:04:19.732Z,102192.72
2023-03-04T16:06:51.456Z,102183.06
2023-03-04T16:09:21.015Z,102183.97
2023-03-04T16:11:48.127Z,102183.09
2023-03-04T16:14:20.014Z,102178.75
2023-03-04T16:16:48.005Z,102188.34
2023-03-04T16:19:15.084Z,102179.63
2023-03-04T16:21:42.446Z,102180.47
2023-03-04T16:24:18.971Z,102187.47
2023-03-04T16:26:46.718Z,102188.31
2023-03-04T16:29:15.232Z,102178.69
2023-03-04T16:31:42.347Z,102175.19
2023-03-04T16:34:09.489Z,102183.03
2023-03-04T16:36:36.498Z,102175.16
2023-03-04T16:39:16.444Z,102176.00
2023-03-04T16:41:43.498Z,102179.50
2023-03-04T16:44:14.095Z,102180.34
2023-03-04T16:46:46.430Z,102178.56
2023-03-04T16:49:21.223Z,102190.78
2023-03-04T16:51:51.044Z,102186.41
2023-03-04T16:54:30.304Z,102178.50
2023-03-04T16:56:59.209Z,102181.09
2023-03-04T16:59:28.321Z,102184.59
2023-03-04T17:01:55.928Z,102184.56
2023-03-04T17:04:23.201Z,102198.56
2023-03-04T17:06:50.270Z,102193.25
2023-03-04T17:09:17.365Z,102194.09
2023-03-04T17:11:44.313Z,102199.31
2023-03-04T17:14:11.305Z,102206.28
2023-03-04T17:16:38.392Z,102200.13
2023-03-04T17:19:05.410Z,102200.97
2023-03-04T17:21:33.765Z,102200.94
2023-03-04T17:24:00.845Z,102202.63
2023-03-04T17:26:27.898Z,102195.59
2023-03-04T17:28:54.998Z,102201.69
2023-03-04T17:31:22.266Z,102195.53
2023-03-04T17:33:49.843Z,102199.03
2023-03-04T17:36:19.232Z,102200.78
2023-03-04T17:38:47.245Z,102203.41
2023-03-04T17:41:18.114Z,102199.88
2023-03-04T17:43:48.783Z,102197.25
2023-03-04T17:46:23.160Z,102199.88
2023-03-04T17:48:55.363Z,102208.63
2023-03-04T17:51:35.060Z,102208.59
2023-03-04T17:54:05.792Z,102209.47
2023-03-04T17:56:35.013Z,102210.31
2023-03-04T17:59:07.836Z,102211.19
2023-03-04T18:01:36.066Z,102211.19
2023-03-04T18:04:03.513Z,102207.66
2023-03-04T18:06:30.551Z,102211.19
2023-03-04T18:08:57.586Z,102207.66
2023-03-04T18:11:27.085Z,102204.09
2023-03-04T18:13:56.484Z,102204.91
2023-03-04T18:16:27.298Z,102204.00
2023-03-04T18:19:04.483Z,102207.47
2023-03-04T18:21:33.612Z,102203.06
2023-03-04T18:24:03.409Z,102207.41
2023-03-04T18:26:31.484Z,102219.63
2023-03-04T18:28:59.173Z,102208.25
2023-03-04T18:31:32.927Z,102208.25
2023-03-04T18:34:04.974Z,102210.00
2023-03-04T18:36:35.169Z,102214.31
2023-03-04T18:39:05.410Z,102216.03
2023-03-04T18:41:34.157Z,102219.50
2023-03-04T18:44:02.143Z,102211.66
2023-03-04T18:46:42.829Z,102219.50
2023-03-04T18:49:13.261Z,102209.88
2023-03-04T18:51:41.452Z,102219.44
2023-03-04T18:54:09.701Z,102215.97
2023-03-04T18:56:49.171Z,102219.44
2023-03-04T18:59:27.286Z,102224.69
2023-03-04T19:01:56.154Z,102222.88
2023-03-04T19:04:27.750Z,102217.66
2023-03-04T19:06:55.669Z,102225.53
2023-03-04T19:09:22.681Z,102222.88
2023-03-04T19:11:49.622Z,102223.72
2023-03-04T19:14:16.669Z,102231.56
2023-03-04T19:16:43.697Z,102229.88
2023-03-04T19:19:10.814Z,102227.19
2023-03-04T19:21:38.648Z,102228.06
2023-03-04T19:24:06.431Z,102236.75
2023-03-04T19:26:34.232Z,102230.50
2023-03-04T19:29:01.394Z,102235.69
2023-03-04T19:31:28.397Z,102228.53
2023-03-04T19:33:55.535Z,102226.56
2023-03-04T19:36:22.534Z,102231.63
2023-03-04T19:38:49.523Z,102230.63
2023-03-04T19:41:17.414Z,102231.47
2023-03-04T19:43:45.964Z,102234.06
2023-03-04T19:46:14.106Z,102241.91
2023-03-04T19:48:42.109Z,102232.34
2023-03-04T19:51:20.207Z,102237.63
2023-03-04T19:53:47.915Z,102231.50
2023-03-04T19:56:15.048Z,102233.31
2023-03-04T19:58:42.484Z,102223.72
2023-03-04T20:01:30.149Z,102220.25
2023-03-04T20:04:04.312Z,102216.72
2023-03-04T20:06:31.866Z,102218.47
2023-03-04T20:09:00.549Z,102214.13
2023-03-04T20:11:30.360Z,102213.25
2023-03-04T20:13:58.613Z,102217.59
2023-03-04T20:16:26.456Z,102217.59
2023-03-04T20:18:55.137Z,102221.94
2023-03-04T20:21:22.063Z,102216.72
2023-03-04T20:23:49.308Z,102211.44
2023-03-04T20:26:18.378Z,102216.66
2023-03-04T20:28:51.924Z,102216.66
2023-03-04T20:31:27.896Z,102221.03
2023-03-04T20:33:56.096Z,102221.03
2023-03-04T20:36:26.580Z,102226.28
2023-03-04T20:39:02.114Z,102220.97
2023-03-04T20:41:32.055Z,102225.28
2023-03-04T20:43:59.086Z,102227.91
2023-03-04T20:46:41.196Z,102230.50
2023-03-04T20:49:22.203Z,102223.50
2023-03-04T20:51:51.315Z,102220.00
2023-03-04T20:54:18.659Z,102222.63
2023-03-04T20:56:46.311Z,102225.22
2023-03-04T20:59:13.899Z,102226.13
2023-03-04T21:01:44.727Z,102220.00
2023-03-04T21:04:11.990Z,102228.69
2023-03-04T21:06:41.213Z,102226.91
2023-03-04T21:09:13.034Z,102222.53
2023-03-04T21:11:40.948Z,102224.22
2023-03-04T21:14:15.457Z,102221.63
2023-03-04T21:16:43.080Z,102221.59
2023-03-04T21:19:17.032Z,102225.09
2023-03-04T21:21:45.839Z,102225.16
2023-03-04T21:24:17.703Z,102216.41
2023-03-04T21:26:45.448Z,102213.78
2023-03-04T21:29:13.166Z,102212.03
2023-03-04T21:31:44.965Z,102205.88
2023-03-04T21:34:28.901Z,102203.25
2023-03-04T21:36:56.138Z,102197.13
2023-03-04T21:39:25.563Z,102200.56
2023-03-04T21:41:52.999Z,102191.81
2023-03-04T21:44:28.186Z,102197.06
2023-03-04T21:46:59.890Z,102187.44
2023-03-04T21:49:27.903Z,102190.00
2023-03-04T21:51:55.267Z,102190.91
2023-03-04T21:54:23.021Z,102186.53
2023-03-04T21:56:50.349Z,102191.69
2023-03-04T21:59:17.593Z,102185.56
2023-03-04T22:01:47.409Z,102175.09
2023-03-04T22:04:14.472Z,102182.94
2023-03-04T22:06:41.626Z,102180.31
2023-03-04T22:09:09.593Z,102185.53
2023-03-04T22:11:36.666Z,102182.94
2023-03-04T22:14:03.782Z,102181.19
2023-03-04T22:16:35.415Z,102174.19
2023-03-04T22:19:04.634Z,102176.81
2023-03-04T22:21:31.680Z,102175.94
2023-03-04T22:23:58.979Z,102168.06
2023-03-04T22:26:32.562Z,102172.38
2023-03-04T22:29:01.574Z,102168.03
2023-03-04T22:31:33.078Z,102169.75
2023-03-04T22:34:07.980Z,102169.75
2023-03-04T22:36:40.118Z,102174.97
2023-03-04T22:39:11.528Z,102168.88
2023-03-04T22:41:38.872Z,102174.06
2023-03-04T22:44:06.434Z,102172.34
2023-03-04T22:46:38.150Z,102168.81
2023-03-04T22:49:09.969Z,102160.97
2023-03-04T22:51:38.413Z,102160.06
2023-03-04T22:54:05.475Z,102160.06
2023-03-04T22:56:33.139Z,102167.03
2023-03-04T22:59:00.275Z,102162.66
2023-03-04T23:01:27.328Z,102157.41
2023-03-04T23:03:54.367Z,102148.63
2023-03-04T23:06:25.218Z,102145.13
2023-03-04T23:08:52.925Z,102147.72
2023-03-04T23:11:25.400Z,102149.47
2023-03-04T23:13:53.612Z,102148.56
2023-03-04T23:16:27.846Z,102146.78
2023-03-04T23:18:55.601Z,102152.81
2023-03-04T23:21:25.713Z,102144.97
2023-03-04T23:23:53.224Z,102142.28
2023-03-04T23:26:26.249Z,102145.72
2023-03-04T23:28:56.798Z,102145.66
2023-03-04T23:31:25.564Z,102136.00
2023-03-04T23:33:57.182Z,102135.13
2023-03-04T23:36:28.268Z,102134.22
2023-03-04T23:38:55.679Z,102129.84
2023-03-04T23:41:26.527Z,102135.03
2023-03-04T23:43:56.150Z,102135.06
2023-03-04T23:46:24.821Z,102135.06
2023-03-04T23:48:53.806Z,102129.84
2023-03-04T23:51:26.641Z,102135.94
2023-03-04T23:53:54.874Z,102129.00
2023-03-04T23:56:29.005Z,102128.13
2023-03-04T23:58:58.075Z,102127.25
